Time;durP1;ratioP1;P1;durP2;ratioP2;P2;SDS_P1;SDS_P2;PMS_P1;PMS_P2;Temp;Humidity;BMP_temperature;BMP_pressure;BME280_temperature;BME280_humidity;BME280_pressure;Samples;Min_cycle;Max_cycle;Signal;HPM_P1;HPM_P2
2023/06/13 00:06:21;;;;;;;1999.90;999.90;;;21.90;67.70;;;;;;6725539;88;20188;-78
2023/06/13 00:16:25;;;;;;;1999.90;999.90;;;22.10;67.30;;;;;;6724918;88;20185;-79
2023/06/13 00:26:25;;;;;;;1999.90;999.90;;;22.10;67.60;;;;;;6729906;88;20767;-81
2023/06/13 00:36:27;;;;;;;1999.90;999.90;;;21.90;68.80;;;;;;6727197;88;20219;-79
2023/06/13 00:46:32;;;;;;;1999.90;999.90;;;22.00;68.20;;;;;;6721588;88;20188;-79
2023/06/13 00:56:34;;;;;;;1999.90;999.90;;;21.80;68.90;;;;;;6721635;88;20749;-80
2023/06/13 01:06:40;;;;;;;1999.90;999.90;;;21.60;69.60;;;;;;6724437;88;20214;-78
2023/06/13 01:16:47;;;;;;;1999.90;999.90;;;21.30;70.90;;;;;;6723657;88;20524;-78
2023/06/13 01:26:58;;;;;;;1999.90;999.90;;;21.10;71.30;;;;;;6723949;88;20662;-79
2023/06/13 01:36:59;;;;;;;1999.90;999.90;;;20.90;72.10;;;;;;6723726;88;20177;-78
2023/06/13 01:47:12;;;;;;;1999.90;999.90;;;20.70;73.00;;;;;;6741553;88;20184;-78
2023/06/13 01:57:15;;;;;;;1999.90;999.90;;;20.70;73.30;;;;;;6743874;88;20629;-78
2023/06/13 02:07:16;;;;;;;1999.90;999.90;;;20.50;73.50;;;;;;6739801;88;20227;-78
2023/06/13 02:17:17;;;;;;;1999.90;999.90;;;20.30;74.30;;;;;;6739463;88;20185;-78
2023/06/13 02:27:17;;;;;;;1999.90;999.90;;;20.10;74.80;;;;;;6740273;88;20209;-78
2023/06/13 02:37:20;;;;;;;1999.90;999.90;;;19.90;76.00;;;;;;6742478;88;20242;-81
2023/06/13 02:47:21;;;;;;;1999.90;999.90;;;19.70;76.40;;;;;;6737236;88;20189;-80
2023/06/13 02:57:21;;;;;;;1999.90;999.90;;;19.70;76.90;;;;;;6748055;88;20188;-79
2023/06/13 03:07:23;;;;;;;1999.90;999.90;;;19.60;77.20;;;;;;6741406;88;20301;-80
2023/06/13 03:17:24;;;;;;;1999.90;999.90;;;19.40;78.00;;;;;;6742876;88;20181;-79
2023/06/13 03:27:25;;;;;;;1999.90;999.90;;;19.30;78.30;;;;;;6742512;88;20302;-79
2023/06/13 03:37:25;;;;;;;1999.90;999.90;;;19.20;78.90;;;;;;6741948;88;20188;-80
2023/06/13 03:47:26;;;;;;;1999.90;999.90;;;19.00;80.70;;;;;;6743218;88;20619;-80
2023/06/13 03:57:26;;;;;;;1999.90;999.90;;;18.90;80.50;;;;;;6742190;88;20217;-81
2023/06/13 04:07:33;;;;;;;1999.90;999.90;;;19.00;81.20;;;;;;6746631;88;20656;-81
2023/06/13 04:17:34;;;;;;;1999.90;999.90;;;18.90;82.40;;;;;;6745415;88;20202;-81
2023/06/13 04:27:34;;;;;;;1999.90;999.90;;;18.80;82.10;;;;;;6743678;88;20166;-81
2023/06/13 04:37:35;;;;;;;1999.90;999.90;;;18.70;82.90;;;;;;6740444;88;20246;-81
2023/06/13 04:47:35;;;;;;;1999.90;999.90;;;18.90;81.70;;;;;;6738940;88;20309;-80
2023/06/13 04:57:36;;;;;;;1999.90;999.90;;;19.00;80.80;;;;;;6738665;88;20189;-81
2023/06/13 05:07:39;;;;;;;1999.90;999.90;;;19.00;81.50;;;;;;6735982;88;20265;-80
2023/06/13 05:17:39;;;;;;;1999.90;999.90;;;19.20;81.60;;;;;;6732980;88;20238;-80
2023/06/13 05:27:40;;;;;;;1999.90;999.90;;;19.30;81.90;;;;;;6752425;88;20175;-79
2023/06/13 05:37:41;;;;;;;1999.90;999.90;;;19.50;80.30;;;;;;6755987;88;20752;-81
2023/06/13 05:47:41;;;;;;;1999.90;999.90;;;19.60;81.30;;;;;;6752098;88;20203;-78
2023/06/13 05:57:43;;;;;;;1999.90;999.90;;;19.80;81.50;;;;;;6747330;88;20683;-80
2023/06/13 06:07:45;;;;;;;1999.90;999.90;;;20.30;81.20;;;;;;6738913;88;20299;-79
2023/06/13 06:17:45;;;;;;;1999.90;999.90;;;21.00;76.70;;;;;;6738870;88;20237;-78
2023/06/13 06:27:50;;;;;;;1999.90;999.90;;;21.60;76.10;;;;;;6739889;88;20189;-79
2023/06/13 06:37:50;;;;;;;1999.90;999.90;;;22.20;75.00;;;;;;6743477;88;20674;-79
2023/06/13 06:47:51;;;;;;;1999.90;999.90;;;22.50;72.90;;;;;;6740620;88;20231;-79
2023/06/13 06:57:53;;;;;;;1999.90;999.90;;;22.60;72.50;;;;;;6742215;88;20633;-79
2023/06/13 07:07:53;;;;;;;1999.90;999.90;;;22.50;72.20;;;;;;6745252;88;20679;-79
2023/06/13 07:17:54;;;;;;;1999.90;999.90;;;23.10;71.50;;;;;;6741679;88;20223;-78
2023/06/13 07:27:54;;;;;;;1999.90;999.90;;;23.30;72.80;;;;;;6738286;88;20189;-78
2023/06/13 07:37:55;;;;;;;1999.90;999.90;;;23.50;71.60;;;;;;6735248;88;20201;-79
2023/06/13 07:47:57;;;;;;;1999.90;999.90;;;23.90;69.80;;;;;;6735226;88;20497;-80
2023/06/13 07:57:57;;;;;;;1999.90;999.90;;;24.10;70.70;;;;;;6741269;88;20282;-80
2023/06/13 08:07:58;;;;;;;1999.90;999.90;;;24.50;70.00;;;;;;6735557;88;20199;-79
2023/06/13 08:17:59;;;;;;;1999.90;999.90;;;25.40;69.70;;;;;;6735910;88;20607;-80
2023/06/13 08:27:59;;;;;;;1999.90;999.90;;;25.40;67.40;;;;;;6748630;88;20538;-81
2023/06/13 08:38:00;;;;;;;1999.90;999.90;;;25.90;68.00;;;;;;6743416;88;20242;-79
2023/06/13 08:48:01;;;;;;;1999.90;999.90;;;26.20;67.00;;;;;;6747651;88;20218;-79
2023/06/13 08:58:04;;;;;;;1999.90;999.90;;;27.30;65.90;;;;;;6760735;88;20208;-81
2023/06/13 09:08:06;;;;;;;1999.90;999.90;;;27.20;64.60;;;;;;6754703;88;20199;-80
2023/06/13 09:18:06;;;;;;;1999.90;999.90;;;27.20;64.10;;;;;;6750930;88;20270;-80
2023/06/13 09:28:36;;;;;;;1999.90;999.90;;;27.10;62.80;;;;;;6754820;88;20274;-80
2023/06/13 09:38:40;;;;;;;1999.90;999.90;;;27.10;63.10;;;;;;6745873;88;20207;-80
2023/06/13 09:48:45;;;;;;;1999.90;999.90;;;27.30;63.10;;;;;;6756125;87;20189;-81
2023/06/13 09:58:46;;;;;;;1999.90;999.90;;;28.30;62.80;;;;;;6758701;88;20712;-81
2023/06/13 10:08:46;;;;;;;1999.90;999.90;;;28.60;62.20;;;;;;6765523;88;20162;-80
2023/06/13 10:18:51;;;;;;;1999.90;999.90;;;30.40;61.20;;;;;;6758975;88;20190;-79
2023/06/13 10:29:24;;;;;;;1999.90;999.90;;;29.70;59.50;;;;;;6761208;88;20202;-81
2023/06/13 10:40:06;;;;;;;1999.90;999.90;;;28.80;60.20;;;;;;6752109;88;20834;-82
2023/06/13 10:50:08;;;;;;;1999.90;999.90;;;30.00;59.80;;;;;;6744103;88;20205;-81
2023/06/13 11:00:26;;;;;;;1999.90;999.90;;;30.30;59.70;;;;;;6762001;88;20320;-81
2023/06/13 11:10:30;;;;;;;1999.90;999.90;;;30.10;58.50;;;;;;6755078;87;20718;-77
2023/06/13 11:20:31;;;;;;;1999.90;999.90;;;31.70;58.20;;;;;;6762535;87;20213;-78
2023/06/13 11:30:32;;;;;;;1999.90;999.90;;;32.20;58.00;;;;;;6746783;88;20223;-80
2023/06/13 11:40:35;;;;;;;;;;;32.20;55.90;;;;;;6746162;88;20189;-78
2023/06/13 11:50:36;;;;;;;1999.90;999.90;;;32.10;56.00;;;;;;6750628;88;20146;-80
2023/06/13 12:00:50;;;;;;;1999.90;999.90;;;31.20;56.40;;;;;;6764391;88;20751;-79
2023/06/13 12:10:51;;;;;;;1999.90;999.90;;;32.80;55.60;;;;;;6765443;87;20188;-80
2023/06/13 12:20:53;;;;;;;;;;;32.30;55.70;;;;;;6764406;88;20239;-78
2023/06/13 12:30:57;;;;;;;1999.90;999.90;;;31.50;55.20;;;;;;6774864;87;20623;-79
2023/06/13 12:40:58;;;;;;;1999.90;999.90;;;33.10;55.20;;;;;;6759362;88;20165;-79
2023/06/13 12:50:59;;;;;;;1999.90;999.90;;;34.30;54.50;;;;;;6767881;87;20217;-79
2023/06/13 13:01:00;;;;;;;;;;;33.10;54.30;;;;;;6767554;88;20157;-78
2023/06/13 13:11:00;;;;;;;1999.90;999.90;;;32.10;54.30;;;;;;6769511;87;20114;-80
2023/06/13 13:21:01;;;;;;;1999.90;999.90;;;33.50;52.90;;;;;;6729799;88;20189;-81
2023/06/13 13:31:02;;;;;;;1999.90;999.90;;;32.90;53.30;;;;;;6754232;88;20188;-80
2023/06/13 13:41:02;;;;;;;1999.90;999.90;;;33.60;53.10;;;;;;6767521;88;20485;-79
2023/06/13 13:51:03;;;;;;;;;;;32.10;52.90;;;;;;6757707;88;21170;-79
2023/06/13 14:01:03;;;;;;;1999.90;999.90;;;32.80;53.40;;;;;;6759725;88;20690;-80
2023/06/13 14:11:04;;;;;;;1999.90;999.90;;;32.80;53.30;;;;;;6757857;88;20196;-80
2023/06/13 14:21:05;;;;;;;1999.90;999.90;;;31.90;53.10;;;;;;6762616;88;20168;-80
2023/06/13 14:31:05;;;;;;;1999.90;999.90;;;31.40;53.20;;;;;;6748274;88;20193;-80
2023/06/13 14:41:06;;;;;;;1999.90;999.90;;;31.40;53.60;;;;;;6755948;88;20212;-79
2023/06/13 14:51:06;;;;;;;1999.90;999.90;;;32.50;53.60;;;;;;6747373;88;20314;-81
2023/06/13 15:01:07;;;;;;;1999.90;999.90;;;32.70;53.10;;;;;;6743618;88;20684;-77
2023/06/13 15:11:12;;;;;;;1999.90;999.90;;;33.20;53.60;;;;;;6750494;88;20250;-81
2023/06/13 15:21:12;;;;;;;1999.90;999.90;;;33.60;52.90;;;;;;6775865;88;20210;-80
2023/06/13 15:31:13;;;;;;;1999.90;999.90;;;33.90;52.30;;;;;;6762627;88;20368;-82
2023/06/13 15:41:14;;;;;;;1999.90;999.90;;;33.40;52.50;;;;;;6759162;88;20201;-80
2023/06/13 15:51:14;;;;;;;1999.90;999.90;;;32.80;53.30;;;;;;6751180;88;20222;-80
2023/06/13 16:01:15;;;;;;;1999.90;999.90;;;32.70;51.60;;;;;;6747241;88;20281;-80
2023/06/13 16:11:15;;;;;;;1999.90;999.90;;;32.20;52.00;;;;;;6743874;88;20598;-80
2023/06/13 16:21:16;;;;;;;1999.90;999.90;;;32.60;51.90;;;;;;6742922;88;20389;-81
2023/06/13 16:31:16;;;;;;;1999.90;999.90;;;31.40;52.50;;;;;;6738092;88;20702;-80
2023/06/13 16:41:17;;;;;;;1999.90;999.90;;;31.70;52.90;;;;;;6732398;88;20813;-80
2023/06/13 16:51:17;;;;;;;1999.90;999.90;;;32.10;53.70;;;;;;6726219;88;20221;-79
2023/06/13 17:01:18;;;;;;;1999.90;999.90;;;30.20;54.40;;;;;;6744844;88;20193;-80
2023/06/13 17:11:18;;;;;;;1999.90;999.90;;;30.40;55.70;;;;;;6740764;88;20193;-80
2023/06/13 17:21:19;;;;;;;1999.90;999.90;;;30.40;55.40;;;;;;6732673;88;20568;-79
2023/06/13 17:31:19;;;;;;;1999.90;999.90;;;31.70;55.00;;;;;;6745105;88;20687;-80
2023/06/13 17:41:20;;;;;;;1999.90;999.90;;;30.60;54.70;;;;;;6745936;88;20193;-80
2023/06/13 17:51:21;;;;;;;1999.90;999.90;;;30.30;55.10;;;;;;6744500;88;20241;-78
2023/06/13 18:01:22;;;;;;;1999.90;999.90;;;28.40;66.40;;;;;;6733404;88;20239;-78
2023/06/13 18:11:22;;;;;;;1999.90;999.90;;;28.20;59.80;;;;;;6744932;88;20207;-81
2023/06/13 18:21:23;;;;;;;1999.90;999.90;;;28.30;58.30;;;;;;6744237;88;20912;-78
2023/06/13 18:31:24;;;;;;;1999.90;999.90;;;28.00;58.40;;;;;;6741069;88;20190;-79
2023/06/13 18:41:25;;;;;;;1999.90;999.90;;;27.80;58.50;;;;;;6739140;88;20227;-78
2023/06/13 18:51:26;;;;;;;1999.90;999.90;;;27.50;59.10;;;;;;6739235;88;20182;-78
2023/06/13 19:01:32;;;;;;;1999.90;999.90;;;27.20;59.40;;;;;;6741955;88;20207;-79
2023/06/13 19:11:33;;;;;;;1999.90;999.90;;;27.00;61.50;;;;;;6735195;88;20191;-77
2023/06/13 19:21:33;;;;;;;1999.90;999.90;;;26.70;61.80;;;;;;6734970;88;20185;-77
2023/06/13 19:31:34;;;;;;;1999.90;999.90;;;26.30;62.30;;;;;;6733821;88;20210;-78
2023/06/13 19:41:34;;;;;;;1999.90;999.90;;;26.00;62.40;;;;;;6733593;88;20196;-78
2023/06/13 19:51:35;;;;;;;1999.90;999.90;;;25.60;64.00;;;;;;6739338;88;20276;-79
2023/06/13 20:01:38;;;;;;;1999.90;999.90;;;25.30;64.80;;;;;;6745043;88;20319;-78
2023/06/13 20:11:39;;;;;;;1999.90;999.90;;;25.00;65.30;;;;;;6741025;88;20511;-78
2023/06/13 20:21:40;;;;;;;1999.90;999.90;;;24.60;68.70;;;;;;6748641;88;20181;-79
2023/06/13 20:31:41;;;;;;;1999.90;999.90;;;24.30;69.90;;;;;;6746093;88;20653;-77
2023/06/13 20:41:42;;;;;;;1999.90;999.90;;;23.80;69.60;;;;;;6738411;88;20242;-77
2023/06/13 20:51:45;;;;;;;1999.90;999.90;;;23.70;67.40;;;;;;6754880;88;20243;-79
2023/06/13 21:01:52;;;;;;;1999.90;999.90;;;23.50;67.10;;;;;;6748383;88;20620;-79
2023/06/13 21:11:53;;;;;;;1999.90;999.90;;;23.40;67.10;;;;;;6745899;88;20260;-77
2023/06/13 21:21:53;;;;;;;1999.90;999.90;;;23.20;67.90;;;;;;6738720;88;20185;-77
2023/06/13 21:31:54;;;;;;;1999.90;999.90;;;22.70;70.50;;;;;;6739075;88;20356;-78
2023/06/13 21:41:55;;;;;;;1999.90;999.90;;;22.40;72.40;;;;;;6749589;88;20189;-78
2023/06/13 21:51:55;;;;;;;1999.90;999.90;;;22.10;72.50;;;;;;6744269;88;20202;-77
2023/06/13 22:01:56;;;;;;;1999.90;999.90;;;21.80;74.20;;;;;;6746815;88;20194;-78
2023/06/13 22:11:57;;;;;;;1999.90;999.90;;;21.60;73.30;;;;;;6746428;88;20214;-78
2023/06/13 22:21:58;;;;;;;1999.90;999.90;;;21.30;74.60;;;;;;6749728;88;20177;-77
2023/06/13 22:31:58;;;;;;;1999.90;999.90;;;21.30;74.30;;;;;;6750455;88;20210;-78
2023/06/13 22:41:59;;;;;;;1999.90;999.90;;;21.30;73.70;;;;;;6744566;88;20207;-77
2023/06/13 22:52:00;;;;;;;1999.90;999.90;;;21.10;73.90;;;;;;6752734;87;20225;-78
2023/06/13 23:02:01;;;;;;;1999.90;999.90;;;21.10;74.60;;;;;;6748253;88;20818;-77
2023/06/13 23:12:02;;;;;;;1999.90;999.90;;;21.00;74.80;;;;;;6749536;88;20202;-78
2023/06/13 23:22:02;;;;;;;1999.90;999.90;;;20.70;75.90;;;;;;6755975;88;21333;-77
2023/06/13 23:32:04;;;;;;;1999.90;999.90;;;20.60;77.40;;;;;;6756514;88;20600;-77
2023/06/13 23:42:05;;;;;;;1999.90;999.90;;;20.30;78.90;;;;;;6759097;88;20153;-76
2023/06/13 23:52:07;;;;;;;1999.90;999.90;;;20.10;78.90;;;;;;6757773;88;20209;-78
